sensor_id;sensor_type;location;lat;lon;timestamp;temperature;humidity
65034;DHT22;51601;51.356;12.458;2022-07-24T00:00:26;18.10;68.70
65034;DHT22;51601;51.356;12.458;2022-07-24T00:04:40;18.10;69.20
65034;DHT22;51601;51.356;12.458;2022-07-24T00:08:54;18.00;69.40
65034;DHT22;51601;51.356;12.458;2022-07-24T00:13:08;18.00;69.80
65034;DHT22;51601;51.356;12.458;2022-07-24T00:17:23;17.90;70.10
65034;DHT22;51601;51.356;12.458;2022-07-24T00:21:37;17.90;70.20
65034;DHT22;51601;51.356;12.458;2022-07-24T00:25:52;17.80;70.10
65034;DHT22;51601;51.356;12.458;2022-07-24T00:30:07;17.60;70.20
65034;DHT22;51601;51.356;12.458;2022-07-24T00:34:22;17.60;70.90
65034;DHT22;51601;51.356;12.458;2022-07-24T00:38:36;17.60;71.30
65034;DHT22;51601;51.356;12.458;2022-07-24T00:42:50;17.50;72.00
65034;DHT22;51601;51.356;12.458;2022-07-24T00:47:04;17.50;72.40
65034;DHT22;51601;51.356;12.458;2022-07-24T00:51:23;17.50;72.30
65034;DHT22;51601;51.356;12.458;2022-07-24T00:55:37;17.40;72.40
65034;DHT22;51601;51.356;12.458;2022-07-24T00:59:51;17.30;72.50
65034;DHT22;51601;51.356;12.458;2022-07-24T01:04:05;17.20;72.80
65034;DHT22;51601;51.356;12.458;2022-07-24T01:08:23;17.20;73.30
65034;DHT22;51601;51.356;12.458;2022-07-24T01:12:39;17.20;73.70
65034;DHT22;51601;51.356;12.458;2022-07-24T01:16:53;17.10;73.30
65034;DHT22;51601;51.356;12.458;2022-07-24T01:21:08;17.00;73.20
65034;DHT22;51601;51.356;12.458;2022-07-24T01:25:22;17.00;73.20
65034;DHT22;51601;51.356;12.458;2022-07-24T01:29:36;16.90;73.40
65034;DHT22;51601;51.356;12.458;2022-07-24T01:33:51;16.80;73.50
65034;DHT22;51601;51.356;12.458;2022-07-24T01:38:06;16.70;73.50
65034;DHT22;51601;51.356;12.458;2022-07-24T01:42:19;16.60;73.60
65034;DHT22;51601;51.356;12.458;2022-07-24T01:46:33;16.50;73.90
65034;DHT22;51601;51.356;12.458;2022-07-24T01:50:47;16.40;74.20
65034;DHT22;51601;51.356;12.458;2022-07-24T01:55:02;16.30;74.70
65034;DHT22;51601;51.356;12.458;2022-07-24T01:59:17;16.20;75.10
65034;DHT22;51601;51.356;12.458;2022-07-24T02:03:32;16.10;75.50
65034;DHT22;51601;51.356;12.458;2022-07-24T02:07:53;16.10;75.70
65034;DHT22;51601;51.356;12.458;2022-07-24T02:12:08;16.10;75.90
65034;DHT22;51601;51.356;12.458;2022-07-24T02:16:22;16.00;76.00
65034;DHT22;51601;51.356;12.458;2022-07-24T02:20:36;15.90;76.00
65034;DHT22;51601;51.356;12.458;2022-07-24T02:24:51;15.90;76.40
65034;DHT22;51601;51.356;12.458;2022-07-24T02:29:06;15.80;76.90
65034;DHT22;51601;51.356;12.458;2022-07-24T02:33:20;15.80;77.30
65034;DHT22;51601;51.356;12.458;2022-07-24T02:37:35;15.80;77.30
65034;DHT22;51601;51.356;12.458;2022-07-24T02:41:49;15.80;77.20
65034;DHT22;51601;51.356;12.458;2022-07-24T02:46:04;15.70;77.20
65034;DHT22;51601;51.356;12.458;2022-07-24T02:50:19;15.60;77.50
65034;DHT22;51601;51.356;12.458;2022-07-24T02:54:33;15.60;77.70
65034;DHT22;51601;51.356;12.458;2022-07-24T02:58:47;15.50;77.80
65034;DHT22;51601;51.356;12.458;2022-07-24T03:03:02;15.40;77.80
65034;DHT22;51601;51.356;12.458;2022-07-24T03:07:16;15.40;78.00
65034;DHT22;51601;51.356;12.458;2022-07-24T03:11:30;15.30;78.90
65034;DHT22;51601;51.356;12.458;2022-07-24T03:15:44;15.30;78.40
65034;DHT22;51601;51.356;12.458;2022-07-24T03:19:59;15.20;78.60
65034;DHT22;51601;51.356;12.458;2022-07-24T03:24:13;15.20;78.90
65034;DHT22;51601;51.356;12.458;2022-07-24T03:28:27;15.10;79.00
65034;DHT22;51601;51.356;12.458;2022-07-24T03:32:41;15.10;80.00
65034;DHT22;51601;51.356;12.458;2022-07-24T03:36:59;15.10;79.60
65034;DHT22;51601;51.356;12.458;2022-07-24T03:41:13;15.10;79.90
65034;DHT22;51601;51.356;12.458;2022-07-24T03:45:27;15.10;80.20
65034;DHT22;51601;51.356;12.458;2022-07-24T03:49:41;15.20;81.50
65034;DHT22;51601;51.356;12.458;2022-07-24T03:53:56;15.80;82.50
65034;DHT22;51601;51.356;12.458;2022-07-24T03:58:10;16.60;81.10
65034;DHT22;51601;51.356;12.458;2022-07-24T04:02:24;17.60;79.00
65034;DHT22;51601;51.356;12.458;2022-07-24T04:06:37;18.50;76.40
65034;DHT22;51601;51.356;12.458;2022-07-24T04:10:54;19.50;73.70
65034;DHT22;51601;51.356;12.458;2022-07-24T04:15:10;20.40;71.20
65034;DHT22;51601;51.356;12.458;2022-07-24T04:19:24;21.20;68.60
65034;DHT22;51601;51.356;12.458;2022-07-24T04:23:38;21.80;67.50
65034;DHT22;51601;51.356;12.458;2022-07-24T04:27:53;22.60;65.00
65034;DHT22;51601;51.356;12.458;2022-07-24T04:32:07;23.40;62.60
65034;DHT22;51601;51.356;12.458;2022-07-24T04:36:20;24.20;60.30
65034;DHT22;51601;51.356;12.458;2022-07-24T04:40:34;24.80;58.70
65034;DHT22;51601;51.356;12.458;2022-07-24T04:44:50;25.50;57.00
65034;DHT22;51601;51.356;12.458;2022-07-24T04:49:03;26.30;55.10
65034;DHT22;51601;51.356;12.458;2022-07-24T04:53:18;26.90;53.60
65034;DHT22;51601;51.356;12.458;2022-07-24T04:57:32;27.70;52.10
65034;DHT22;51601;51.356;12.458;2022-07-24T05:01:47;28.60;50.50
65034;DHT22;51601;51.356;12.458;2022-07-24T05:06:01;29.20;48.40
65034;DHT22;51601;51.356;12.458;2022-07-24T05:10:14;29.50;47.30
65034;DHT22;51601;51.356;12.458;2022-07-24T05:14:28;30.00;46.50
65034;DHT22;51601;51.356;12.458;2022-07-24T05:18:44;30.80;45.10
65034;DHT22;51601;51.356;12.458;2022-07-24T05:22:58;31.60;43.60
65034;DHT22;51601;51.356;12.458;2022-07-24T05:27:12;32.30;42.30
65034;DHT22;51601;51.356;12.458;2022-07-24T05:31:26;33.00;40.80
65034;DHT22;51601;51.356;12.458;2022-07-24T05:35:41;33.50;39.00
65034;DHT22;51601;51.356;12.458;2022-07-24T05:40:00;33.90;37.60
65034;DHT22;51601;51.356;12.458;2022-07-24T05:44:17;34.40;36.90
65034;DHT22;51601;51.356;12.458;2022-07-24T05:48:31;34.80;36.10
65034;DHT22;51601;51.356;12.458;2022-07-24T05:52:46;35.30;35.10
65034;DHT22;51601;51.356;12.458;2022-07-24T05:57:00;35.50;33.60
65034;DHT22;51601;51.356;12.458;2022-07-24T06:01:14;35.70;32.40
65034;DHT22;51601;51.356;12.458;2022-07-24T06:05:28;35.60;31.20
65034;DHT22;51601;51.356;12.458;2022-07-24T06:09:43;35.50;31.90
65034;DHT22;51601;51.356;12.458;2022-07-24T06:13:57;35.80;31.40
65034;DHT22;51601;51.356;12.458;2022-07-24T06:18:11;36.00;30.00
65034;DHT22;51601;51.356;12.458;2022-07-24T06:22:25;36.00;29.40
65034;DHT22;51601;51.356;12.458;2022-07-24T06:26:40;35.90;29.40
65034;DHT22;51601;51.356;12.458;2022-07-24T06:31:14;35.70;29.70
65034;DHT22;51601;51.356;12.458;2022-07-24T06:35:29;35.80;30.20
65034;DHT22;51601;51.356;12.458;2022-07-24T06:39:45;36.30;29.50
65034;DHT22;51601;51.356;12.458;2022-07-24T06:44:00;36.70;29.70
65034;DHT22;51601;51.356;12.458;2022-07-24T06:48:14;37.20;29.20
65034;DHT22;51601;51.356;12.458;2022-07-24T06:52:28;37.50;28.80
65034;DHT22;51601;51.356;12.458;2022-07-24T06:56:42;37.80;28.30
65034;DHT22;51601;51.356;12.458;2022-07-24T07:01:04;37.80;28.10
65034;DHT22;51601;51.356;12.458;2022-07-24T07:05:18;38.00;28.00
65034;DHT22;51601;51.356;12.458;2022-07-24T07:09:32;38.40;27.70
65034;DHT22;51601;51.356;12.458;2022-07-24T07:13:48;38.60;26.80
65034;DHT22;51601;51.356;12.458;2022-07-24T07:18:03;38.60;26.90
65034;DHT22;51601;51.356;12.458;2022-07-24T07:22:16;38.70;26.80
65034;DHT22;51601;51.356;12.458;2022-07-24T07:26:30;39.10;26.80
65034;DHT22;51601;51.356;12.458;2022-07-24T07:30:44;39.70;26.30
65034;DHT22;51601;51.356;12.458;2022-07-24T07:35:00;40.20;25.80
65034;DHT22;51601;51.356;12.458;2022-07-24T07:39:16;40.50;25.30
65034;DHT22;51601;51.356;12.458;2022-07-24T07:43:33;40.60;24.70
65034;DHT22;51601;51.356;12.458;2022-07-24T07:47:47;40.60;25.00
65034;DHT22;51601;51.356;12.458;2022-07-24T07:52:04;40.90;25.10
65034;DHT22;51601;51.356;12.458;2022-07-24T07:56:18;41.40;24.80
65034;DHT22;51601;51.356;12.458;2022-07-24T08:00:34;41.80;24.60
65034;DHT22;51601;51.356;12.458;2022-07-24T08:04:48;42.20;24.30
65034;DHT22;51601;51.356;12.458;2022-07-24T08:09:04;42.30;23.90
65034;DHT22;51601;51.356;12.458;2022-07-24T08:13:18;42.40;23.80
65034;DHT22;51601;51.356;12.458;2022-07-24T08:17:32;42.50;23.70
65034;DHT22;51601;51.356;12.458;2022-07-24T08:21:46;42.50;23.40
65034;DHT22;51601;51.356;12.458;2022-07-24T08:26:02;42.40;23.50
65034;DHT22;51601;51.356;12.458;2022-07-24T08:30:16;42.50;23.30
65034;DHT22;51601;51.356;12.458;2022-07-24T08:34:30;42.70;23.40
65034;DHT22;51601;51.356;12.458;2022-07-24T08:38:43;43.00;23.40
65034;DHT22;51601;51.356;12.458;2022-07-24T08:42:59;43.20;23.00
65034;DHT22;51601;51.356;12.458;2022-07-24T08:47:15;43.40;22.90
65034;DHT22;51601;51.356;12.458;2022-07-24T08:51:37;43.50;22.90
65034;DHT22;51601;51.356;12.458;2022-07-24T08:55:51;43.60;22.60
65034;DHT22;51601;51.356;12.458;2022-07-24T09:00:07;43.70;22.60
65034;DHT22;51601;51.356;12.458;2022-07-24T09:04:35;43.60;22.50
65034;DHT22;51601;51.356;12.458;2022-07-24T09:08:58;43.70;22.70
65034;DHT22;51601;51.356;12.458;2022-07-24T09:13:14;44.00;22.50
65034;DHT22;51601;51.356;12.458;2022-07-24T09:17:30;44.20;22.30
65034;DHT22;51601;51.356;12.458;2022-07-24T09:21:43;44.40;22.00
65034;DHT22;51601;51.356;12.458;2022-07-24T09:26:01;44.20;22.00
65034;DHT22;51601;51.356;12.458;2022-07-24T09:30:23;44.30;22.10
65034;DHT22;51601;51.356;12.458;2022-07-24T09:34:40;44.10;22.10
65034;DHT22;51601;51.356;12.458;2022-07-24T09:38:54;43.90;22.00
65034;DHT22;51601;51.356;12.458;2022-07-24T09:43:19;44.00;22.10
65034;DHT22;51601;51.356;12.458;2022-07-24T09:47:34;44.20;21.80
65034;DHT22;51601;51.356;12.458;2022-07-24T09:52:09;44.30;21.80
65034;DHT22;51601;51.356;12.458;2022-07-24T09:56:24;44.40;21.80
65034;DHT22;51601;51.356;12.458;2022-07-24T10:00:41;44.40;21.70
65034;DHT22;51601;51.356;12.458;2022-07-24T10:04:58;44.50;21.70
65034;DHT22;51601;51.356;12.458;2022-07-24T10:09:17;44.50;21.50
65034;DHT22;51601;51.356;12.458;2022-07-24T10:13:36;44.60;21.50
65034;DHT22;51601;51.356;12.458;2022-07-24T10:18:13;44.50;21.20
65034;DHT22;51601;51.356;12.458;2022-07-24T10:22:38;43.90;21.40
65034;DHT22;51601;51.356;12.458;2022-07-24T10:27:03;43.30;21.80
65034;DHT22;51601;51.356;12.458;2022-07-24T10:31:18;43.30;21.80
65034;DHT22;51601;51.356;12.458;2022-07-24T10:35:35;43.50;21.70
65034;DHT22;51601;51.356;12.458;2022-07-24T10:39:58;43.70;21.60
65034;DHT22;51601;51.356;12.458;2022-07-24T10:44:18;44.00;21.40
65034;DHT22;51601;51.356;12.458;2022-07-24T10:48:35;44.30;21.00
65034;DHT22;51601;51.356;12.458;2022-07-24T10:52:49;44.60;20.90
65034;DHT22;51601;51.356;12.458;2022-07-24T10:57:03;44.30;20.80
65034;DHT22;51601;51.356;12.458;2022-07-24T11:01:35;43.80;21.10
65034;DHT22;51601;51.356;12.458;2022-07-24T11:06:03;43.50;21.10
65034;DHT22;51601;51.356;12.458;2022-07-24T11:10:18;42.60;21.20
65034;DHT22;51601;51.356;12.458;2022-07-24T11:14:48;41.80;21.40
65034;DHT22;51601;51.356;12.458;2022-07-24T11:19:29;40.30;22.20
65034;DHT22;51601;51.356;12.458;2022-07-24T11:24:16;38.60;23.30
65034;DHT22;51601;51.356;12.458;2022-07-24T11:28:32;37.60;24.60
65034;DHT22;51601;51.356;12.458;2022-07-24T11:32:47;37.90;25.30
65034;DHT22;51601;51.356;12.458;2022-07-24T11:37:03;38.60;25.00
65034;DHT22;51601;51.356;12.458;2022-07-24T11:41:24;39.20;24.80
65034;DHT22;51601;51.356;12.458;2022-07-24T11:45:38;39.60;23.90
65034;DHT22;51601;51.356;12.458;2022-07-24T11:49:54;39.70;23.40
65034;DHT22;51601;51.356;12.458;2022-07-24T11:54:11;39.80;23.10
65034;DHT22;51601;51.356;12.458;2022-07-24T11:58:25;39.60;22.90
65034;DHT22;51601;51.356;12.458;2022-07-24T12:02:51;39.10;23.00
65034;DHT22;51601;51.356;12.458;2022-07-24T12:07:07;38.10;23.20
65034;DHT22;51601;51.356;12.458;2022-07-24T12:11:22;36.90;24.00
65034;DHT22;51601;51.356;12.458;2022-07-24T12:15:38;35.70;24.70
65034;DHT22;51601;51.356;12.458;2022-07-24T12:19:54;34.60;25.30
65034;DHT22;51601;51.356;12.458;2022-07-24T12:24:08;33.50;26.10
65034;DHT22;51601;51.356;12.458;2022-07-24T12:28:25;32.70;26.70
65034;DHT22;51601;51.356;12.458;2022-07-24T12:32:52;32.10;27.70
65034;DHT22;51601;51.356;12.458;2022-07-24T12:37:14;31.40;28.30
65034;DHT22;51601;51.356;12.458;2022-07-24T12:41:31;30.90;28.90
65034;DHT22;51601;51.356;12.458;2022-07-24T12:45:46;30.40;29.20
65034;DHT22;51601;51.356;12.458;2022-07-24T12:50:17;30.00;29.50
65034;DHT22;51601;51.356;12.458;2022-07-24T12:54:52;29.90;29.50
65034;DHT22;51601;51.356;12.458;2022-07-24T12:59:06;29.80;29.50
65034;DHT22;51601;51.356;12.458;2022-07-24T13:03:25;29.60;29.50
65034;DHT22;51601;51.356;12.458;2022-07-24T13:07:39;29.60;29.70
65034;DHT22;51601;51.356;12.458;2022-07-24T13:11:54;29.60;29.60
65034;DHT22;51601;51.356;12.458;2022-07-24T13:16:08;29.60;29.50
65034;DHT22;51601;51.356;12.458;2022-07-24T13:20:23;29.50;29.60
65034;DHT22;51601;51.356;12.458;2022-07-24T13:24:38;29.60;29.70
65034;DHT22;51601;51.356;12.458;2022-07-24T13:28:53;29.70;30.00
65034;DHT22;51601;51.356;12.458;2022-07-24T13:33:06;29.80;30.00
65034;DHT22;51601;51.356;12.458;2022-07-24T13:37:22;29.90;29.90
65034;DHT22;51601;51.356;12.458;2022-07-24T13:41:36;29.90;30.00
65034;DHT22;51601;51.356;12.458;2022-07-24T13:45:51;29.90;30.00
65034;DHT22;51601;51.356;12.458;2022-07-24T15:10:17;29.90;29.40
65034;DHT22;51601;51.356;12.458;2022-07-24T15:14:31;29.90;29.50
65034;DHT22;51601;51.356;12.458;2022-07-24T15:18:45;29.90;29.50
65034;DHT22;51601;51.356;12.458;2022-07-24T15:22:59;29.90;29.60
65034;DHT22;51601;51.356;12.458;2022-07-24T15:27:14;29.90;29.70
65034;DHT22;51601;51.356;12.458;2022-07-24T15:31:28;29.90;29.60
65034;DHT22;51601;51.356;12.458;2022-07-24T15:35:42;29.90;29.40
65034;DHT22;51601;51.356;12.458;2022-07-24T15:39:56;29.90;29.40
65034;DHT22;51601;51.356;12.458;2022-07-24T15:44:11;29.80;29.70
65034;DHT22;51601;51.356;12.458;2022-07-24T15:48:25;29.80;29.90
65034;DHT22;51601;51.356;12.458;2022-07-24T15:52:39;29.80;29.70
65034;DHT22;51601;51.356;12.458;2022-07-24T15:56:54;29.80;29.70
65034;DHT22;51601;51.356;12.458;2022-07-24T16:01:09;29.80;29.70
65034;DHT22;51601;51.356;12.458;2022-07-24T16:05:43;29.80;30.20
65034;DHT22;51601;51.356;12.458;2022-07-24T16:09:57;29.80;29.60
65034;DHT22;51601;51.356;12.458;2022-07-24T16:14:11;29.80;29.30
65034;DHT22;51601;51.356;12.458;2022-07-24T16:18:27;29.80;29.30
65034;DHT22;51601;51.356;12.458;2022-07-24T16:22:41;29.80;29.10
65034;DHT22;51601;51.356;12.458;2022-07-24T16:26:55;29.80;29.20
65034;DHT22;51601;51.356;12.458;2022-07-24T16:31:09;29.80;29.30
65034;DHT22;51601;51.356;12.458;2022-07-24T16:35:25;29.80;29.40
65034;DHT22;51601;51.356;12.458;2022-07-24T16:39:39;29.70;29.50
65034;DHT22;51601;51.356;12.458;2022-07-24T16:43:54;29.70;29.70
65034;DHT22;51601;51.356;12.458;2022-07-24T16:54:40;29.50;29.30
65034;DHT22;51601;51.356;12.458;2022-07-24T16:58:54;29.50;29.30
65034;DHT22;51601;51.356;12.458;2022-07-24T17:03:08;29.50;29.30
65034;DHT22;51601;51.356;12.458;2022-07-24T17:07:22;29.40;29.30
65034;DHT22;51601;51.356;12.458;2022-07-24T17:11:37;29.40;29.50
65034;DHT22;51601;51.356;12.458;2022-07-24T17:15:51;29.30;29.90
65034;DHT22;51601;51.356;12.458;2022-07-24T17:20:06;29.30;30.10
65034;DHT22;51601;51.356;12.458;2022-07-24T17:24:20;29.20;30.20
65034;DHT22;51601;51.356;12.458;2022-07-24T17:28:36;29.20;30.40
65034;DHT22;51601;51.356;12.458;2022-07-24T17:32:50;29.10;30.30
65034;DHT22;51601;51.356;12.458;2022-07-24T17:37:04;29.10;30.40
65034;DHT22;51601;51.356;12.458;2022-07-24T17:41:31;29.30;30.30
65034;DHT22;51601;51.356;12.458;2022-07-24T17:45:46;29.50;30.00
65034;DHT22;51601;51.356;12.458;2022-07-24T17:50:00;29.40;30.00
65034;DHT22;51601;51.356;12.458;2022-07-24T17:54:14;29.30;30.00
65034;DHT22;51601;51.356;12.458;2022-07-24T17:58:28;29.20;30.20
65034;DHT22;51601;51.356;12.458;2022-07-24T18:02:43;29.00;30.40
65034;DHT22;51601;51.356;12.458;2022-07-24T18:06:57;28.90;30.60
65034;DHT22;51601;51.356;12.458;2022-07-24T18:11:14;28.80;30.90
65034;DHT22;51601;51.356;12.458;2022-07-24T18:15:28;28.70;31.00
65034;DHT22;51601;51.356;12.458;2022-07-24T18:19:44;28.60;31.30
65034;DHT22;51601;51.356;12.458;2022-07-24T18:23:58;28.50;31.50
65034;DHT22;51601;51.356;12.458;2022-07-24T18:28:12;28.30;31.80
65034;DHT22;51601;51.356;12.458;2022-07-24T18:32:25;28.30;32.10
65034;DHT22;51601;51.356;12.458;2022-07-24T18:36:41;28.10;32.40
65034;DHT22;51601;51.356;12.458;2022-07-24T18:40:55;28.10;32.60
65034;DHT22;51601;51.356;12.458;2022-07-24T18:45:10;27.90;32.90
65034;DHT22;51601;51.356;12.458;2022-07-24T18:49:24;27.80;34.00
65034;DHT22;51601;51.356;12.458;2022-07-24T18:53:42;27.70;33.70
65034;DHT22;51601;51.356;12.458;2022-07-24T18:57:56;27.60;34.10
65034;DHT22;51601;51.356;12.458;2022-07-24T19:02:10;27.40;34.20
65034;DHT22;51601;51.356;12.458;2022-07-24T19:06:25;27.30;34.60
65034;DHT22;51601;51.356;12.458;2022-07-24T19:10:42;27.10;34.70
65034;DHT22;51601;51.356;12.458;2022-07-24T19:14:55;27.00;35.00
65034;DHT22;51601;51.356;12.458;2022-07-24T19:19:09;26.90;35.10
65034;DHT22;51601;51.356;12.458;2022-07-24T19:23:31;26.80;35.50
65034;DHT22;51601;51.356;12.458;2022-07-24T19:27:50;26.60;35.60
65034;DHT22;51601;51.356;12.458;2022-07-24T19:32:04;26.40;35.70
65034;DHT22;51601;51.356;12.458;2022-07-24T19:36:19;26.40;35.70
65034;DHT22;51601;51.356;12.458;2022-07-24T19:40:36;26.30;35.90
65034;DHT22;51601;51.356;12.458;2022-07-24T19:44:53;26.20;36.00
65034;DHT22;51601;51.356;12.458;2022-07-24T19:49:08;26.10;36.30
65034;DHT22;51601;51.356;12.458;2022-07-24T19:53:21;26.00;36.70
65034;DHT22;51601;51.356;12.458;2022-07-24T19:57:36;25.80;37.10
65034;DHT22;51601;51.356;12.458;2022-07-24T20:01:51;25.70;37.80
65034;DHT22;51601;51.356;12.458;2022-07-24T20:06:05;25.60;38.00
65034;DHT22;51601;51.356;12.458;2022-07-24T20:10:20;25.50;38.20
65034;DHT22;51601;51.356;12.458;2022-07-24T20:14:34;25.30;38.20
65034;DHT22;51601;51.356;12.458;2022-07-24T20:18:49;25.30;38.10
65034;DHT22;51601;51.356;12.458;2022-07-24T20:23:03;25.30;37.80
65034;DHT22;51601;51.356;12.458;2022-07-24T20:27:17;25.30;37.80
65034;DHT22;51601;51.356;12.458;2022-07-24T20:31:31;25.40;37.80
65034;DHT22;51601;51.356;12.458;2022-07-24T20:35:46;25.30;37.80
65034;DHT22;51601;51.356;12.458;2022-07-24T20:40:00;25.30;38.00
65034;DHT22;51601;51.356;12.458;2022-07-24T20:44:14;25.20;38.30
65034;DHT22;51601;51.356;12.458;2022-07-24T20:48:28;25.10;38.60
65034;DHT22;51601;51.356;12.458;2022-07-24T20:52:43;24.90;39.00
65034;DHT22;51601;51.356;12.458;2022-07-24T20:56:58;24.80;39.30
65034;DHT22;51601;51.356;12.458;2022-07-24T21:01:12;24.70;39.60
65034;DHT22;51601;51.356;12.458;2022-07-24T21:05:26;24.60;39.90
65034;DHT22;51601;51.356;12.458;2022-07-24T21:09:42;24.50;40.20
65034;DHT22;51601;51.356;12.458;2022-07-24T21:13:56;24.40;40.60
65034;DHT22;51601;51.356;12.458;2022-07-24T21:18:10;24.30;41.00
65034;DHT22;51601;51.356;12.458;2022-07-24T21:22:24;24.20;41.50
65034;DHT22;51601;51.356;12.458;2022-07-24T21:26:39;24.20;42.00
65034;DHT22;51601;51.356;12.458;2022-07-24T21:30:54;24.10;42.40
65034;DHT22;51601;51.356;12.458;2022-07-24T21:35:08;24.10;42.40
65034;DHT22;51601;51.356;12.458;2022-07-24T21:39:22;24.00;42.60
65034;DHT22;51601;51.356;12.458;2022-07-24T21:43:37;23.90;42.90
65034;DHT22;51601;51.356;12.458;2022-07-24T21:47:51;23.80;43.00
65034;DHT22;51601;51.356;12.458;2022-07-24T21:52:04;23.70;43.20
65034;DHT22;51601;51.356;12.458;2022-07-24T21:56:19;23.60;43.20
65034;DHT22;51601;51.356;12.458;2022-07-24T22:00:37;23.50;43.40
65034;DHT22;51601;51.356;12.458;2022-07-24T22:04:51;23.40;43.80
65034;DHT22;51601;51.356;12.458;2022-07-24T22:09:05;23.30;44.20
65034;DHT22;51601;51.356;12.458;2022-07-24T22:13:19;23.20;44.60
65034;DHT22;51601;51.356;12.458;2022-07-24T22:17:34;23.10;44.80
65034;DHT22;51601;51.356;12.458;2022-07-24T22:21:48;23.00;45.20
65034;DHT22;51601;51.356;12.458;2022-07-24T22:26:01;23.00;45.30
65034;DHT22;51601;51.356;12.458;2022-07-24T22:30:15;22.90;45.60
65034;DHT22;51601;51.356;12.458;2022-07-24T22:34:31;22.90;45.90
65034;DHT22;51601;51.356;12.458;2022-07-24T22:38:46;22.90;45.60
65034;DHT22;51601;51.356;12.458;2022-07-24T22:43:00;22.80;45.60
65034;DHT22;51601;51.356;12.458;2022-07-24T22:47:14;22.70;45.80
65034;DHT22;51601;51.356;12.458;2022-07-24T22:51:32;22.60;46.20
65034;DHT22;51601;51.356;12.458;2022-07-24T22:55:47;22.40;46.70
65034;DHT22;51601;51.356;12.458;2022-07-24T23:00:02;22.30;47.10
65034;DHT22;51601;51.356;12.458;2022-07-24T23:04:16;22.10;47.40
65034;DHT22;51601;51.356;12.458;2022-07-24T23:08:31;22.00;47.60
65034;DHT22;51601;51.356;12.458;2022-07-24T23:12:45;21.90;47.80
65034;DHT22;51601;51.356;12.458;2022-07-24T23:16:59;21.80;48.00
65034;DHT22;51601;51.356;12.458;2022-07-24T23:21:13;21.70;48.80
65034;DHT22;51601;51.356;12.458;2022-07-24T23:25:28;21.70;48.10
65034;DHT22;51601;51.356;12.458;2022-07-24T23:29:42;21.60;47.90
65034;DHT22;51601;51.356;12.458;2022-07-24T23:33:56;21.60;47.80
65034;DHT22;51601;51.356;12.458;2022-07-24T23:38:10;21.60;47.50
65034;DHT22;51601;51.356;12.458;2022-07-24T23:42:25;21.70;47.40
65034;DHT22;51601;51.356;12.458;2022-07-24T23:46:39;21.60;47.30
65034;DHT22;51601;51.356;12.458;2022-07-24T23:50:52;21.60;47.10
65034;DHT22;51601;51.356;12.458;2022-07-24T23:55:07;21.60;47.10
65034;DHT22;51601;51.356;12.458;2022-07-24T23:59:22;21.60;47.20
